Portada
METAR-TAF:

METAR-TAF

Aeropuertos :

Aeropuerto Internacional Rey Fahd

Dammam, Arabia Saudita

latitud: 26-28N, longitud: 049-47E, altitud: 22 m

Observación

El informe se hizo hace 59 minutos, a las 13:00 UTC
Viento 9 kt del sureste
Temperatura 22°C
Humedad 33%
Presión 1018 hPa
Visibilidad 10 km o más
sin nubes por debajo de 1500 m y sin presencia de cumulonimbus.

METAR: OEDF 171300Z 14009KT CAVOK 22/05 Q1018 NOSIG

Hora: 16:59 (13:59 UTC)

Pronóstico

El informe se hizo hace 4 horas y 59 minutos, a las 09:00 UTC
Pronóstico válido del 17 a las 12 UTC al 18 a las 18 UTC
Viento 12 kt del sur-sureste
Visibilidad 10 km o más
sin nubes por debajo de 1500 m y sin presencia de cumulonimbus.
Temporalmente
del 18 a las 04 UTC al 18 a las 14 UTC
Viento 14 kt del sur
Visibilidad: 5000 m
Polvo extendido

TAF: OEDF 170900Z 1712/1818 15012KT CAVOK TEMPO 1804/1814 18014KT 5000 DU

Observaciones y pronósticos meteorológicos de más de 4000 aeropuertos (mensajes METAR y TAF).

Los puntos amarillos y rojos representan las estaciones disponibles.

Ponga el ratón en el punto deseado para ver el nombre de la estación.

Haga clic para ver las observaciones y los pronósticos meteorológicos.

Para cambiar el mapa : haga clic en los botones verdes con una cruz de color negro para hacer un zoom, en el botón verde con un guión para alejar o en las flechas verdes para mapas adyacentes.


METAR-TAF: